Time,TemperatureF,DewpointF,PressureIn,WindDirection,WindDirectionDegrees,WindSpeedMPH,WindSpeedGustMPH,Humidity,HourlyPrecipIn,Conditions,Clouds,dailyrainin,SolarRadiationWatts/m^2,SoftwareType,DateUTC
2013-05-30 00:12:00,50.0,37.0,-100.00,SSE,152,3.0,11.0,60,0.00,,,0.01,0.000000,,2013-05-30 07:12:00,
2013-05-30 00:21:00,50.0,37.0,-100.00,SSE,152,3.0,11.0,60,0.00,,,0.01,0.000000,,2013-05-30 07:21:00,
2013-05-30 00:31:00,50.0,37.0,-100.00,SSE,152,3.0,11.0,60,0.00,,,0.01,0.000000,,2013-05-30 07:31:00,
2013-05-30 00:42:00,50.0,37.0,-100.00,SSE,152,3.0,11.0,60,0.00,,,0.01,0.000000,,2013-05-30 07:42:00,
2013-05-30 01:11:00,47.0,35.0,-100.00,SE,135,0.0,8.0,63,0.00,,,0.01,0.000000,,2013-05-30 08:11:00,
2013-05-30 01:21:00,47.0,35.0,-100.00,SE,135,0.0,8.0,63,0.00,,,0.01,0.000000,,2013-05-30 08:21:00,
2013-05-30 01:31:00,47.0,35.0,-100.00,SE,135,0.0,8.0,63,0.00,,,0.01,0.000000,,2013-05-30 08:31:00,
2013-05-30 01:42:00,47.0,35.0,-100.00,SE,135,0.0,8.0,63,0.00,,,0.01,0.000000,,2013-05-30 08:42:00,
2013-05-30 02:11:00,42.0,34.0,-100.00,SE,142,0.0,4.0,72,0.00,,,0.01,0.000000,,2013-05-30 09:11:00,
2013-05-30 02:21:00,42.0,34.0,-100.00,SE,142,0.0,4.0,72,0.00,,,0.01,0.000000,,2013-05-30 09:21:00,
2013-05-30 02:32:00,42.0,34.0,-100.00,SE,142,0.0,4.0,72,0.00,,,0.01,0.000000,,2013-05-30 09:32:00,
2013-05-30 02:42:00,42.0,34.0,-100.00,SE,142,0.0,4.0,72,0.00,,,0.01,0.000000,,2013-05-30 09:42:00,
2013-05-30 03:12:00,41.0,33.0,-100.00,SE,138,1.0,6.0,72,0.00,,,0.01,0.000000,,2013-05-30 10:12:00,
2013-05-30 03:22:00,41.0,33.0,-100.00,SE,138,1.0,6.0,72,0.00,,,0.01,0.000000,,2013-05-30 10:22:00,
2013-05-30 03:32:00,41.0,33.0,-100.00,SE,138,1.0,6.0,72,0.00,,,0.01,0.000000,,2013-05-30 10:32:00,
2013-05-30 03:42:00,41.0,33.0,-100.00,SE,138,1.0,6.0,72,0.00,,,0.01,0.000000,,2013-05-30 10:42:00,
2013-05-30 04:12:00,37.0,32.0,-100.00,SE,141,0.0,3.0,81,0.00,,,0.01,0.000000,,2013-05-30 11:12:00,
2013-05-30 04:21:00,37.0,32.0,-100.00,SE,141,0.0,3.0,81,0.00,,,0.01,0.000000,,2013-05-30 11:21:00,
2013-05-30 04:32:00,37.0,32.0,-100.00,SE,141,0.0,3.0,81,0.00,,,0.01,0.000000,,2013-05-30 11:32:00,
2013-05-30 04:42:00,37.0,32.0,-100.00,SE,141,0.0,3.0,81,0.00,,,0.01,0.000000,,2013-05-30 11:42:00,
2013-05-30 05:11:00,36.0,28.0,-100.00,SE,144,0.0,0.0,72,0.00,,,0.01,0.000000,,2013-05-30 12:11:00,
2013-05-30 05:22:00,36.0,28.0,-100.00,SE,144,0.0,0.0,72,0.00,,,0.01,0.000000,,2013-05-30 12:22:00,
2013-05-30 05:32:00,36.0,28.0,-100.00,SE,144,0.0,0.0,72,0.00,,,0.01,0.000000,,2013-05-30 12:32:00,
2013-05-30 05:42:00,36.0,28.0,-100.00,SE,144,0.0,0.0,72,0.00,,,0.01,0.000000,,2013-05-30 12:42:00,
2013-05-30 06:11:00,33.0,24.0,-100.00,SSE,149,0.0,0.0,68,0.00,,,0.00,1.000000,,2013-05-30 13:11:00,
2013-05-30 06:22:00,33.0,24.0,-100.00,SSE,149,0.0,0.0,68,0.00,,,0.00,1.000000,,2013-05-30 13:22:00,
2013-05-30 06:32:00,33.0,24.0,-100.00,SSE,149,0.0,0.0,68,0.00,,,0.00,1.000000,,2013-05-30 13:32:00,
2013-05-30 06:41:00,33.0,24.0,-100.00,SSE,149,0.0,0.0,68,0.00,,,0.00,1.000000,,2013-05-30 13:41:00,
2013-05-30 07:11:00,35.0,22.0,-100.00,SE,134,0.0,2.0,59,0.00,,,0.00,17.000000,,2013-05-30 14:11:00,
2013-05-30 07:21:00,35.0,22.0,-100.00,SE,134,0.0,2.0,59,0.00,,,0.00,17.000000,,2013-05-30 14:21:00,
2013-05-30 07:32:00,35.0,22.0,-100.00,SE,134,0.0,2.0,59,0.00,,,0.00,17.000000,,2013-05-30 14:32:00,
2013-05-30 07:42:00,35.0,22.0,-100.00,SE,134,0.0,2.0,59,0.00,,,0.00,17.000000,,2013-05-30 14:42:00,
2013-05-30 08:11:00,44.0,25.0,-100.00,SSE,160,0.0,6.0,47,-99.99,,,0.00,39.000000,,2013-05-30 15:11:00,
2013-05-30 08:22:00,44.0,25.0,-100.00,SSE,160,0.0,6.0,47,-99.99,,,0.00,39.000000,,2013-05-30 15:22:00,
2013-05-30 08:33:00,44.0,25.0,-100.00,SSE,160,0.0,6.0,47,-99.99,,,0.00,39.000000,,2013-05-30 15:33:00,
2013-05-30 09:12:00,58.0,27.0,-100.00,ENE,78,1.0,6.0,30,-99.99,,,0.00,245.000000,,2013-05-30 16:12:00,
2013-05-30 09:22:00,58.0,27.0,-100.00,ENE,78,1.0,6.0,30,-99.99,,,0.00,245.000000,,2013-05-30 16:22:00,
2013-05-30 09:33:00,58.0,27.0,-100.00,ENE,78,1.0,6.0,30,-99.99,,,0.00,245.000000,,2013-05-30 16:33:00,
2013-05-30 09:42:00,58.0,27.0,-100.00,ENE,78,1.0,6.0,30,-99.99,,,0.00,245.000000,,2013-05-30 16:42:00,
2013-05-30 10:02:00,61.0,27.0,-100.00,West,281,2.0,7.0,27,0.00,,,0.00,714.000000,,2013-05-30 17:02:00,
2013-05-30 10:11:00,61.0,27.0,-100.00,West,281,2.0,7.0,27,0.00,,,0.00,714.000000,,2013-05-30 17:11:00,
2013-05-30 10:22:00,61.0,27.0,-100.00,West,281,2.0,7.0,27,0.00,,,0.00,714.000000,,2013-05-30 17:22:00,
2013-05-30 10:32:00,61.0,27.0,-100.00,West,281,2.0,7.0,27,0.00,,,0.00,714.000000,,2013-05-30 17:32:00,
2013-05-30 10:42:00,61.0,27.0,-100.00,West,281,2.0,7.0,27,0.00,,,0.00,714.000000,,2013-05-30 17:42:00,
2013-05-30 11:11:00,69.0,21.0,-100.00,NNW,343,3.0,8.0,16,0.00,,,0.00,938.000000,,2013-05-30 18:11:00,
2013-05-30 11:21:00,69.0,21.0,-100.00,NNW,343,3.0,8.0,16,0.00,,,0.00,938.000000,,2013-05-30 18:21:00,
2013-05-30 11:32:00,69.0,21.0,-100.00,NNW,343,3.0,8.0,16,0.00,,,0.00,938.000000,,2013-05-30 18:32:00,
2013-05-30 11:42:00,69.0,21.0,-100.00,NNW,343,3.0,8.0,16,0.00,,,0.00,938.000000,,2013-05-30 18:42:00,
2013-05-30 12:11:00,70.0,-4.0,-100.00,SSW,193,7.0,15.0,5,0.00,,,0.00,1078.000000,,2013-05-30 19:11:00,
2013-05-30 12:22:00,70.0,-4.0,-100.00,SSW,193,7.0,15.0,5,0.00,,,0.00,1078.000000,,2013-05-30 19:22:00,
2013-05-30 13:11:00,73.0,-2.0,-100.00,SSW,204,8.0,18.0,5,0.00,,,0.00,1150.000000,,2013-05-30 20:11:00,
2013-05-30 13:22:00,73.0,-2.0,-100.00,SSW,204,8.0,18.0,5,0.00,,,0.00,1150.000000,,2013-05-30 20:22:00,
2013-05-30 14:01:00,72.0,5.0,-100.00,WSW,237,9.0,18.0,7,0.00,,,0.00,1153.000000,,2013-05-30 21:01:00,
2013-05-30 15:12:00,73.0,11.0,-100.00,NE,40,8.0,18.0,9,0.00,,,0.00,1104.000000,,2013-05-30 22:12:00,
2013-05-30 15:22:00,73.0,11.0,-100.00,NE,40,8.0,18.0,9,0.00,,,0.00,1104.000000,,2013-05-30 22:22:00,
2013-05-30 16:11:00,74.0,22.0,-100.00,WSW,256,11.0,20.0,14,0.00,,,0.00,989.000000,,2013-05-30 23:11:00,
2013-05-30 16:22:00,74.0,22.0,-100.00,WSW,256,11.0,20.0,14,0.00,,,0.00,989.000000,,2013-05-30 23:22:00,
2013-05-30 16:31:00,74.0,22.0,-100.00,WSW,256,11.0,20.0,14,0.00,,,0.00,989.000000,,2013-05-30 23:31:00,
2013-05-30 16:41:00,74.0,22.0,-100.00,WSW,256,11.0,20.0,14,0.00,,,0.00,989.000000,,2013-05-30 23:41:00,
2013-05-30 17:01:00,72.0,30.0,-100.00,SSW,192,8.0,22.0,21,0.00,,,0.00,814.000000,,2013-05-31 00:01:00,
2013-05-30 17:11:00,72.0,30.0,-100.00,SSW,192,8.0,22.0,21,0.00,,,0.00,814.000000,,2013-05-31 00:11:00,
2013-05-30 17:21:00,72.0,30.0,-100.00,SSW,192,8.0,22.0,21,0.00,,,0.00,814.000000,,2013-05-31 00:21:00,
2013-05-30 17:32:00,72.0,30.0,-100.00,SSW,192,8.0,22.0,21,0.00,,,0.00,814.000000,,2013-05-31 00:32:00,
2013-05-30 17:41:00,72.0,30.0,-100.00,SSW,192,8.0,22.0,21,0.00,,,0.00,814.000000,,2013-05-31 00:41:00,
2013-05-30 18:12:00,73.0,32.0,-100.00,SSW,208,5.0,17.0,22,0.00,,,0.00,594.000000,,2013-05-31 01:12:00,
2013-05-30 18:21:00,73.0,32.0,-100.00,SSW,208,5.0,17.0,22,0.00,,,0.00,594.000000,,2013-05-31 01:21:00,
2013-05-30 18:31:00,73.0,32.0,-100.00,SSW,208,5.0,17.0,22,0.00,,,0.00,594.000000,,2013-05-31 01:31:00,
2013-05-30 18:42:00,73.0,32.0,-100.00,SSW,208,5.0,17.0,22,0.00,,,0.00,594.000000,,2013-05-31 01:42:00,
2013-05-30 19:11:00,68.0,33.0,-100.00,SW,229,8.0,15.0,27,0.00,,,0.00,396.000000,,2013-05-31 02:11:00,
2013-05-30 19:21:00,68.0,33.0,-100.00,SW,229,8.0,15.0,27,0.00,,,0.00,396.000000,,2013-05-31 02:21:00,
2013-05-30 19:32:00,68.0,33.0,-100.00,SW,229,8.0,15.0,27,0.00,,,0.00,396.000000,,2013-05-31 02:32:00,
2013-05-30 19:41:00,68.0,33.0,-100.00,SW,229,8.0,15.0,27,0.00,,,0.00,396.000000,,2013-05-31 02:41:00,
2013-05-30 20:11:00,64.0,35.0,-100.00,SSW,204,5.0,24.0,34,0.00,,,0.00,158.000000,,2013-05-31 03:11:00,
2013-05-30 20:21:00,64.0,35.0,-100.00,SSW,204,5.0,24.0,34,0.00,,,0.00,158.000000,,2013-05-31 03:21:00,
2013-05-30 20:33:00,64.0,35.0,-100.00,SSW,204,5.0,24.0,34,0.00,,,0.00,158.000000,,2013-05-31 03:33:00,
2013-05-30 20:43:00,64.0,35.0,-100.00,SSW,204,5.0,24.0,34,0.00,,,0.00,158.000000,,2013-05-31 03:43:00,
2013-05-30 21:12:00,60.0,34.0,-100.00,South,190,4.0,12.0,37,0.00,,,0.00,6.000000,,2013-05-31 04:12:00,
2013-05-30 21:22:00,60.0,34.0,-100.00,South,190,4.0,12.0,37,0.00,,,0.00,6.000000,,2013-05-31 04:22:00,
2013-05-30 21:32:00,60.0,34.0,-100.00,South,190,4.0,12.0,37,0.00,,,0.00,6.000000,,2013-05-31 04:32:00,
2013-05-30 21:42:00,60.0,34.0,-100.00,South,190,4.0,12.0,37,0.00,,,0.00,6.000000,,2013-05-31 04:42:00,
2013-05-30 22:12:00,55.0,32.0,-100.00,SSW,209,3.0,13.0,41,0.00,,,0.00,0.000000,,2013-05-31 05:12:00,
2013-05-30 22:22:00,55.0,32.0,-100.00,SSW,209,3.0,13.0,41,0.00,,,0.00,0.000000,,2013-05-31 05:22:00,
2013-05-30 22:31:00,55.0,32.0,-100.00,SSW,209,3.0,13.0,41,0.00,,,0.00,0.000000,,2013-05-31 05:31:00,
2013-05-30 22:42:00,55.0,32.0,-100.00,SSW,209,3.0,13.0,41,0.00,,,0.00,0.000000,,2013-05-31 05:42:00,
2013-05-30 23:12:00,54.0,33.0,-100.00,SSE,163,3.0,8.0,44,0.00,,,0.00,0.000000,,2013-05-31 06:12:00,
2013-05-30 23:21:00,54.0,33.0,-100.00,SSE,163,3.0,8.0,44,0.00,,,0.00,0.000000,,2013-05-31 06:21:00,
2013-05-30 23:31:00,54.0,33.0,-100.00,SSE,163,3.0,8.0,44,0.00,,,0.00,0.000000,,2013-05-31 06:31:00,
2013-05-30 23:41:00,54.0,33.0,-100.00,SSE,163,3.0,8.0,44,0.00,,,0.00,0.000000,,2013-05-31 06:41:00,